KACK/ACK METAR and TAF weather

Enter ICAO airport designator
Station Type Date Time Source
KACK METAR 2022/12/04 03:53 UTC NOAA

KACK 040353Z AUTO 27013G19KT 9SM FEW024 SCT070 13/11 A2994 RMK AO2 SLP140 T01330111


Station Type Date Time Source
KACK Decoded METAR 2022/12/04 03:53 UTC NOAA

NANTUCKET MEMORIAL AIRPORT, MA, United States (KACK) 41-15N 70-04W 16M
Dec 03, 2022 - 10:53 PM EST / 2022.12.04 0353 UTC
Wind: from the W (270 degrees) at 15 MPH (13 KT) gusting to 22 MPH (19 KT):0
Visibility: 9 mile(s):0
Sky conditions: partly cloudy
Temperature: 55.9 F (13.3 C)
Dew Point: 52.0 F (11.1 C)
Relative Humidity: 86%
Pressure (altimeter): 29.94 in. Hg (1013 hPa)
ob: KACK 040353Z AUTO 27013G19KT 9SM FEW024 SCT070 13/11 A2994 RMK AO2 SLP140 T01330111
cycle: 4

Station Type Date Time Source
KACK TAF 2022/12/03 21:36 UTC NOAA

TAF
AMD KACK 032035Z 0321/0418 20022G30KT P6SM -SHRA BKN070 OVC090 WS020/21055KT
FM032300 20023G37KT 2SM -SHRA BR OVC015 WS020/21055KT
FM040100 25020G34KT P6SM OVC015
FM040400 30018G30KT P6SM SCT250

Example: see airport list